createdAt,value
2019-01-11T00:07:45.481Z,7.20
2019-01-11T00:10:14.215Z,6.85
2019-01-11T00:12:42.971Z,7.50
2019-01-11T00:15:13.714Z,5.70
2019-01-11T00:17:42.502Z,6.05
2019-01-11T00:20:11.315Z,6.60
2019-01-11T00:22:39.997Z,7.22
2019-01-11T00:25:08.707Z,6.95
2019-01-11T00:27:37.416Z,6.17
2019-01-11T00:30:06.767Z,7.08
2019-01-11T00:32:35.552Z,6.45
2019-01-11T00:35:15.546Z,6.75
2019-01-11T00:37:44.268Z,6.33
2019-01-11T00:40:12.991Z,7.17
2019-01-11T00:42:41.769Z,7.60
2019-01-11T00:45:10.542Z,7.78
2019-01-11T00:47:39.158Z,5.87
2019-01-11T00:50:07.954Z,6.45
2019-01-11T00:52:36.688Z,7.12
2019-01-11T00:55:06.075Z,7.28
2019-01-11T00:57:41.807Z,6.22
2019-01-11T01:00:29.485Z,6.35
2019-01-11T01:02:58.314Z,6.50
2019-01-11T01:05:27.105Z,6.70
2019-01-11T01:10:36.602Z,7.03
2019-01-11T01:13:16.354Z,7.15
2019-01-11T01:15:45.119Z,6.40
2019-01-11T01:18:13.867Z,8.65
2019-01-11T01:20:42.541Z,7.55
2019-01-11T01:23:11.282Z,6.62
2019-01-11T01:25:40.076Z,6.37
2019-01-11T01:28:08.953Z,8.70
2019-01-11T01:30:37.703Z,9.10
2019-01-11T01:33:06.325Z,7.58
2019-01-11T01:35:35.036Z,7.58
2019-01-11T01:38:03.829Z,8.28
2019-01-11T01:40:32.547Z,8.28
2019-01-11T01:43:01.361Z,7.08
2019-01-11T01:45:30.056Z,6.92
2019-01-11T01:47:58.776Z,7.42
2019-01-11T01:50:27.504Z,7.10
2019-01-11T01:52:56.166Z,7.28
2019-01-11T01:55:24.852Z,8.33
2019-01-11T01:57:53.492Z,7.10
2019-01-11T02:00:22.336Z,7.60
2019-01-11T02:02:51.069Z,6.65
2019-01-11T02:05:19.816Z,8.05
2019-01-11T02:07:48.511Z,9.50
2019-01-11T02:10:17.156Z,8.25
2019-01-11T02:12:45.820Z,7.50
2019-01-11T02:15:14.412Z,8.60
2019-01-11T02:17:43.119Z,7.37
2019-01-11T02:20:15.057Z,8.03
2019-01-11T02:22:43.924Z,7.28
2019-01-11T02:25:14.360Z,8.05
2019-01-11T02:27:43.094Z,8.10
2019-01-11T02:30:14.944Z,8.78
2019-01-11T02:32:43.620Z,7.87
2019-01-11T02:35:12.294Z,8.63
2019-01-11T02:37:41.011Z,7.95
2019-01-11T02:40:11.222Z,8.18
2019-01-11T02:42:40.028Z,8.50
2019-01-11T02:45:09.052Z,8.03
2019-01-11T02:47:37.778Z,7.92
2019-01-11T02:50:08.398Z,8.13
2019-01-11T02:52:37.009Z,9.35
2019-01-11T02:55:06.422Z,8.40
2019-01-11T02:57:35.032Z,9.33
2019-01-11T03:03:19.154Z,8.85
2019-01-11T03:05:47.827Z,9.68
2019-01-11T03:08:16.538Z,9.48
2019-01-11T03:10:45.334Z,8.50
2019-01-11T03:13:14.069Z,9.63
2019-01-11T03:15:42.811Z,9.65
2019-01-11T03:18:11.617Z,8.68
2019-01-11T03:20:40.302Z,9.37
2019-01-11T03:23:09.092Z,8.98
2019-01-11T03:25:37.833Z,9.07
2019-01-11T03:28:06.530Z,8.78
2019-01-11T03:30:35.180Z,8.77
2019-01-11T03:33:03.948Z,11.90
2019-01-11T03:35:32.693Z,8.97
2019-01-11T03:38:01.311Z,8.50
2019-01-11T03:40:30.097Z,8.78
2019-01-11T03:42:58.913Z,9.00
2019-01-11T03:45:27.639Z,9.13
2019-01-11T03:47:56.263Z,9.18
2019-01-11T03:50:25.012Z,9.23
2019-01-11T03:52:53.757Z,9.73
2019-01-11T03:55:22.424Z,9.60
2019-01-11T03:57:51.105Z,9.48
2019-01-11T04:00:21.042Z,9.30
2019-01-11T04:02:49.793Z,10.25
2019-01-11T04:05:18.392Z,10.38
2019-01-11T04:07:47.216Z,10.43
2019-01-11T04:10:17.485Z,9.60
2019-01-11T04:12:46.212Z,10.55
2019-01-11T04:18:34.660Z,12.70
2019-01-11T04:21:03.504Z,10.47
2019-01-11T04:23:32.239Z,11.20
2019-01-11T04:28:41.751Z,10.78
2019-01-11T04:31:10.482Z,11.00
2019-01-11T04:33:39.194Z,10.63
2019-01-11T04:36:07.825Z,11.22
2019-01-11T04:38:36.494Z,11.40
2019-01-11T04:41:05.314Z,12.60
2019-01-11T04:43:34.030Z,12.15
2019-01-11T04:46:02.836Z,12.80
2019-01-11T04:48:31.663Z,14.10
2019-01-11T04:51:00.274Z,15.20
2019-01-11T04:53:29.023Z,15.53
2019-01-11T04:55:57.805Z,14.95
2019-01-11T04:58:26.498Z,15.27
2019-01-11T05:00:55.233Z,15.18
2019-01-11T05:03:23.946Z,16.30
2019-01-11T05:05:52.594Z,17.32
2019-01-11T05:08:21.345Z,17.67
2019-01-11T05:10:50.169Z,17.82
2019-01-11T05:16:31.385Z,18.65
2019-01-11T05:19:00.181Z,18.27
2019-01-11T05:21:30.614Z,18.35
2019-01-11T05:24:00.978Z,18.50
2019-01-11T05:26:35.522Z,19.05
2019-01-11T05:29:04.235Z,18.92
2019-01-11T05:31:33.014Z,19.98
2019-01-11T05:34:01.710Z,19.02
2019-01-11T05:36:30.600Z,19.60
2019-01-11T05:38:59.326Z,19.95
2019-01-11T05:41:28.014Z,20.52
2019-01-11T05:43:56.657Z,21.30
2019-01-11T05:46:25.350Z,21.82
2019-01-11T05:48:54.028Z,21.15
2019-01-11T05:51:22.911Z,22.73
2019-01-11T05:53:51.594Z,22.85
2019-01-11T05:56:21.305Z,22.25
2019-01-11T05:59:09.033Z,22.17
2019-01-11T06:01:37.770Z,22.80
2019-01-11T06:04:25.590Z,23.05
2019-01-11T06:07:13.540Z,24.98
2019-01-11T06:09:42.284Z,23.98
2019-01-11T06:12:30.245Z,24.90
2019-01-11T06:14:58.929Z,24.87
2019-01-11T06:17:27.752Z,25.70
2019-01-11T06:19:56.493Z,26.60
2019-01-11T06:22:25.164Z,26.68
2019-01-11T06:24:55.515Z,25.12
2019-01-11T06:27:26.990Z,27.50
2019-01-11T06:29:57.723Z,29.25
2019-01-11T06:32:26.416Z,26.23
2019-01-11T06:34:55.105Z,27.62
2019-01-11T06:40:18.739Z,29.55
2019-01-11T06:42:47.448Z,30.33
2019-01-11T06:45:16.308Z,29.52
2019-01-11T06:47:44.996Z,30.75
2019-01-11T06:50:14.022Z,30.40
2019-01-11T06:52:42.860Z,33.18
2019-01-11T06:55:11.579Z,32.83
2019-01-11T06:57:40.254Z,31.87
2019-01-11T07:00:10.336Z,31.57
2019-01-11T07:02:39.072Z,31.27
2019-01-11T07:05:08.221Z,32.00
2019-01-11T07:07:36.937Z,31.85
2019-01-11T07:10:07.216Z,31.50
2019-01-11T07:12:35.921Z,33.50
2019-01-11T07:15:05.001Z,32.25
2019-01-11T07:17:33.754Z,32.00
2019-01-11T07:20:05.731Z,31.97
2019-01-11T07:22:42.370Z,32.58
2019-01-11T07:25:11.163Z,33.88
2019-01-11T07:27:58.986Z,32.38
2019-01-11T07:36:29.018Z,32.60
2019-01-11T07:38:57.954Z,32.00
2019-01-11T07:41:26.654Z,32.17
2019-01-11T07:43:55.417Z,33.67
2019-01-11T07:46:24.213Z,32.67
2019-01-11T07:48:53.017Z,33.50
2019-01-11T07:51:21.678Z,32.88
2019-01-11T07:53:50.489Z,33.65
2019-01-11T07:56:19.305Z,32.05
2019-01-11T07:58:48.054Z,32.08
2019-01-11T08:01:16.854Z,33.00
2019-01-11T08:03:45.543Z,31.68
2019-01-11T08:06:14.296Z,30.90
2019-01-11T08:08:43.065Z,29.82
2019-01-11T08:11:12.133Z,31.25
2019-01-11T08:13:40.809Z,30.50
2019-01-11T08:16:09.583Z,31.73
2019-01-11T08:18:38.268Z,31.90
2019-01-11T08:21:07.169Z,31.12
2019-01-11T08:23:36.037Z,29.80
2019-01-11T08:26:04.932Z,31.23
2019-01-11T08:28:34.510Z,29.80
2019-01-11T08:31:03.186Z,28.05
2019-01-11T08:33:33.472Z,28.98
2019-01-11T08:36:02.396Z,29.18
2019-01-11T08:38:31.113Z,28.12
2019-01-11T08:40:59.909Z,30.17
2019-01-11T08:43:28.674Z,27.15
2019-01-11T08:45:57.437Z,28.13
2019-01-11T08:48:27.622Z,29.32
2019-01-11T08:51:02.450Z,29.05
2019-01-11T08:53:46.161Z,32.23
2019-01-11T08:56:15.484Z,29.67
2019-01-11T09:01:25.834Z,29.07
2019-01-11T09:03:54.601Z,29.60
2019-01-11T09:06:23.248Z,28.50
2019-01-11T09:08:51.924Z,27.87
2019-01-11T09:11:20.704Z,29.50
2019-01-11T09:13:49.469Z,29.23
2019-01-11T09:16:20.711Z,25.62
2019-01-11T09:18:56.221Z,24.90
2019-01-11T09:21:24.901Z,26.33
2019-01-11T09:23:53.616Z,27.10
2019-01-11T09:26:22.397Z,28.05
2019-01-11T09:28:51.140Z,25.65
2019-01-11T09:31:20.537Z,26.12
2019-01-11T09:33:49.232Z,26.27
2019-01-11T09:36:18.037Z,25.97
2019-01-11T09:38:46.881Z,24.10
2019-01-11T09:41:15.666Z,28.00
2019-01-11T09:43:44.428Z,30.72
2019-01-11T09:46:13.168Z,28.40
2019-01-11T09:48:41.924Z,25.10
2019-01-11T09:51:15.689Z,27.87
2019-01-11T09:54:00.173Z,26.30
2019-01-11T09:56:28.826Z,26.82
2019-01-11T09:58:57.561Z,27.05
2019-01-11T10:01:26.359Z,26.65
2019-01-11T10:03:55.058Z,25.25
2019-01-11T10:06:23.742Z,26.07
2019-01-11T10:08:52.477Z,24.63
2019-01-11T10:11:21.144Z,26.70
2019-01-11T10:13:49.857Z,24.05
2019-01-11T10:19:12.634Z,24.52
2019-01-11T10:21:41.301Z,23.32
2019-01-11T10:24:10.052Z,23.87
2019-01-11T10:26:38.765Z,23.63
2019-01-11T10:29:07.517Z,23.92
2019-01-11T10:31:36.217Z,24.20
2019-01-11T10:34:05.024Z,24.55
2019-01-11T10:36:33.680Z,25.02
2019-01-11T10:39:02.431Z,25.12
2019-01-11T10:41:31.073Z,25.53
2019-01-11T10:43:59.810Z,25.65
2019-01-11T10:46:49.165Z,26.17
2019-01-11T10:49:37.212Z,25.55
2019-01-11T10:52:06.007Z,26.23
2019-01-11T10:57:24.797Z,26.87
2019-01-11T11:02:49.019Z,28.57
2019-01-11T11:05:17.834Z,27.60
2019-01-11T11:07:46.562Z,27.82
2019-01-11T11:10:15.304Z,28.25
2019-01-11T11:12:43.964Z,30.55
2019-01-11T11:15:13.188Z,29.30
2019-01-11T11:17:41.941Z,27.17
2019-01-11T11:22:51.356Z,27.75
2019-01-11T11:25:20.758Z,26.30
2019-01-11T11:27:49.597Z,27.65
2019-01-11T11:30:19.526Z,27.02
2019-01-11T11:33:07.263Z,26.40
2019-01-11T11:35:36.036Z,28.92
2019-01-11T11:38:04.743Z,28.20
2019-01-11T11:40:33.408Z,27.48
2019-01-11T11:43:02.277Z,27.67
2019-01-11T11:48:32.069Z,27.00
2019-01-11T11:51:00.813Z,25.90
2019-01-11T11:53:29.574Z,26.40
2019-01-11T11:55:58.270Z,26.70
2019-01-11T11:58:28.549Z,26.77
2019-01-11T12:00:57.308Z,25.57
2019-01-11T12:03:26.182Z,25.37
2019-01-11T12:05:55.014Z,26.23
2019-01-11T12:08:23.610Z,28.05
2019-01-11T12:10:52.285Z,28.00
2019-01-11T12:13:21.108Z,26.93
2019-01-11T12:15:50.192Z,28.17
2019-01-11T12:18:18.904Z,26.77
2019-01-11T12:20:47.573Z,28.85
2019-01-11T12:23:16.309Z,27.85
2019-01-11T12:25:45.064Z,28.17
2019-01-11T12:28:13.808Z,28.25
2019-01-11T12:30:42.525Z,27.13
2019-01-11T12:33:11.247Z,26.60
2019-01-11T12:35:39.874Z,26.97
2019-01-11T12:38:13.677Z,27.02
2019-01-11T12:40:44.559Z,27.48
2019-01-11T12:43:14.850Z,27.60
2019-01-11T12:45:43.805Z,27.05
2019-01-11T12:48:12.530Z,26.85
2019-01-11T12:50:41.271Z,27.10
2019-01-11T12:53:10.033Z,26.57
2019-01-11T12:55:38.858Z,27.67
2019-01-11T12:58:07.597Z,28.40
2019-01-11T13:00:36.486Z,28.60
2019-01-11T13:03:05.185Z,29.75
2019-01-11T13:05:33.924Z,29.95
2019-01-11T13:08:02.666Z,28.92
2019-01-11T13:10:31.464Z,29.02
2019-01-11T13:13:00.133Z,28.87
2019-01-11T13:15:28.897Z,29.45
2019-01-11T13:17:57.630Z,29.32
2019-01-11T13:20:26.477Z,29.98
2019-01-11T13:22:55.137Z,28.75
2019-01-11T13:25:23.897Z,28.05
2019-01-11T13:27:52.610Z,29.20
2019-01-11T13:30:21.244Z,27.70
2019-01-11T13:32:49.958Z,28.25
2019-01-11T13:35:18.883Z,28.70
2019-01-11T13:37:47.668Z,27.82
2019-01-11T13:40:20.449Z,27.87
2019-01-11T13:42:49.228Z,28.20
2019-01-11T13:45:18.173Z,28.45
2019-01-11T13:47:46.936Z,29.25
2019-01-11T13:50:34.847Z,29.18
2019-01-11T13:53:14.379Z,28.77
2019-01-11T13:55:43.145Z,29.30
2019-01-11T13:58:11.833Z,28.90
2019-01-11T14:00:40.744Z,29.00
2019-01-11T14:03:09.554Z,30.62
2019-01-11T14:05:38.304Z,29.77
2019-01-11T14:08:07.078Z,29.55
2019-01-11T14:10:35.927Z,31.02
2019-01-11T14:13:04.670Z,29.23
2019-01-11T14:15:35.012Z,29.18
2019-01-11T14:18:03.672Z,30.65
2019-01-11T14:20:32.570Z,31.40
2019-01-11T14:23:01.372Z,31.50
2019-01-11T14:25:30.116Z,31.27
2019-01-11T14:27:58.864Z,31.65
2019-01-11T14:30:27.699Z,32.25
2019-01-11T14:32:56.514Z,32.50
2019-01-11T14:35:25.370Z,32.53
2019-01-11T14:37:54.095Z,31.80
2019-01-11T14:40:22.819Z,31.07
2019-01-11T14:42:51.518Z,32.00
2019-01-11T14:45:20.193Z,32.05
2019-01-11T14:47:48.810Z,30.90
2019-01-11T14:50:19.432Z,30.23
2019-01-11T14:55:48.272Z,31.20
2019-01-11T14:58:16.911Z,31.50
2019-01-11T15:00:45.682Z,30.82
2019-01-11T15:03:14.501Z,31.55
2019-01-11T15:05:43.275Z,31.37
2019-01-11T15:08:12.152Z,31.93
2019-01-11T15:10:40.906Z,32.15
2019-01-11T15:13:09.689Z,31.27
2019-01-11T15:15:38.511Z,30.37
2019-01-11T15:20:55.311Z,31.42
2019-01-11T15:23:24.080Z,31.33
2019-01-11T15:25:52.965Z,31.45
2019-01-11T15:28:21.796Z,30.70
2019-01-11T15:30:50.720Z,31.12
2019-01-11T15:33:19.508Z,29.87
2019-01-11T15:35:49.791Z,30.80
2019-01-11T15:38:18.561Z,29.90
2019-01-11T15:40:47.232Z,31.73
2019-01-11T15:43:16.043Z,30.82
2019-01-11T15:45:45.037Z,32.17
2019-01-11T15:48:32.860Z,31.00
2019-01-11T15:51:01.846Z,30.90
2019-01-11T15:53:41.675Z,31.40
2019-01-11T15:56:11.255Z,30.97
2019-01-11T15:58:40.161Z,30.52
2019-01-11T16:01:08.957Z,30.32
2019-01-11T16:03:38.444Z,30.43
2019-01-11T16:06:27.850Z,30.73
2019-01-11T16:09:15.626Z,30.30
2019-01-11T16:11:46.277Z,30.95
2019-01-11T16:14:34.057Z,31.52
2019-01-11T16:17:04.619Z,31.37
2019-01-11T16:19:33.315Z,33.28
2019-01-11T16:22:02.091Z,31.20
2019-01-11T16:24:30.782Z,31.27
2019-01-11T16:26:59.543Z,31.40
2019-01-11T16:29:28.285Z,29.60
2019-01-11T16:31:56.979Z,31.95
2019-01-11T16:34:25.682Z,30.60
2019-01-11T16:36:54.415Z,32.53
2019-01-11T16:39:23.169Z,28.87
2019-01-11T16:41:52.055Z,31.35
2019-01-11T16:44:20.868Z,29.70
2019-01-11T16:46:49.497Z,29.32
2019-01-11T16:49:18.271Z,29.50
2019-01-11T16:51:47.034Z,30.72
2019-01-11T16:54:23.689Z,30.37
2019-01-11T16:56:52.430Z,29.60
2019-01-11T16:59:21.157Z,30.05
2019-01-11T17:01:50.117Z,30.85
2019-01-11T17:04:18.937Z,31.42
2019-01-11T17:06:47.754Z,30.68
2019-01-11T17:09:16.522Z,31.17
2019-01-11T17:11:45.340Z,32.35
2019-01-11T17:14:14.044Z,32.00
2019-01-11T17:16:42.814Z,33.43
2019-01-11T17:19:11.630Z,32.48
2019-01-11T17:21:40.385Z,32.38
2019-01-11T17:24:09.257Z,32.03
2019-01-11T17:26:38.075Z,31.62
2019-01-11T17:29:06.882Z,29.90
2019-01-11T17:31:35.592Z,29.80
2019-01-11T17:34:04.270Z,31.23
2019-01-11T17:36:33.042Z,31.75
2019-01-11T17:39:02.295Z,30.00
2019-01-11T17:41:32.682Z,31.90
2019-01-11T17:44:01.425Z,31.68
2019-01-11T17:46:30.493Z,30.00
2019-01-11T17:49:10.922Z,30.57
2019-01-11T17:51:39.706Z,30.77
2019-01-11T17:54:08.345Z,30.55
2019-01-11T17:56:37.047Z,30.15
2019-01-11T17:59:06.047Z,29.42
2019-01-11T18:01:34.977Z,29.87
2019-01-11T18:04:15.347Z,29.10
2019-01-11T18:06:44.198Z,29.70
2019-01-11T18:09:13.142Z,29.02
2019-01-11T18:11:42.128Z,28.73
2019-01-11T18:14:10.972Z,28.87
2019-01-11T18:16:41.305Z,28.77
2019-01-11T18:19:12.299Z,28.00
2019-01-11T18:21:41.290Z,27.05
2019-01-11T18:24:10.241Z,27.32
2019-01-11T18:26:38.898Z,27.75
2019-01-11T18:29:07.566Z,28.40
2019-01-11T18:31:36.286Z,28.60
2019-01-11T18:34:04.941Z,28.10
2019-01-11T18:36:33.604Z,28.17
2019-01-11T18:39:02.466Z,30.88
2019-01-11T18:41:33.146Z,29.57
2019-01-11T18:44:01.885Z,29.07
2019-01-11T18:46:30.722Z,28.50
2019-01-11T18:48:59.586Z,28.75
2019-01-11T18:51:28.558Z,29.02
2019-01-11T18:53:57.546Z,28.92
2019-01-11T18:56:26.350Z,31.00
2019-01-11T18:58:55.317Z,29.93
2019-01-11T19:01:24.232Z,29.45
2019-01-11T19:03:53.205Z,30.70
2019-01-11T19:06:22.123Z,30.70
2019-01-11T19:08:51.111Z,28.85
2019-01-11T19:11:19.960Z,29.92
2019-01-11T19:13:48.919Z,28.73
2019-01-11T19:16:19.083Z,29.07
2019-01-11T19:18:48.001Z,29.52
2019-01-11T19:21:16.906Z,30.20
2019-01-11T19:23:45.647Z,30.57
2019-01-11T19:26:14.349Z,30.12
2019-01-11T19:28:43.152Z,28.25
2019-01-11T19:31:26.050Z,29.60
2019-01-11T19:33:50.841Z,29.80
2019-01-11T19:36:19.802Z,29.53
2019-01-11T19:42:05.244Z,29.87
2019-01-11T19:44:34.097Z,29.10
2019-01-11T19:47:02.944Z,28.90
2019-01-11T19:49:31.931Z,29.52
2019-01-11T19:52:00.846Z,28.43
2019-01-11T19:54:29.695Z,29.32
2019-01-11T19:56:58.576Z,28.52
2019-01-11T19:59:27.890Z,29.27
2019-01-11T20:01:56.866Z,28.30
2019-01-11T20:04:25.972Z,29.77
2019-01-11T20:10:24.405Z,30.70
2019-01-11T20:15:58.024Z,31.25
2019-01-11T20:18:26.773Z,30.75
2019-01-11T20:20:57.407Z,29.85
2019-01-11T20:23:40.472Z,31.30
2019-01-11T20:26:16.857Z,31.45
2019-01-11T20:28:45.718Z,28.73
2019-01-11T20:31:14.810Z,28.62
2019-01-11T20:33:43.608Z,28.27
2019-01-11T20:36:12.357Z,28.40
2019-01-11T20:38:41.069Z,26.15
2019-01-11T20:41:09.904Z,26.70
2019-01-11T20:43:38.710Z,26.17
2019-01-11T20:46:07.453Z,26.65
2019-01-11T20:48:36.198Z,25.72
2019-01-11T20:51:04.983Z,25.08
2019-01-11T20:53:34.064Z,25.82
2019-01-11T20:56:02.977Z,27.02
2019-01-11T20:58:31.699Z,26.25
2019-01-11T21:01:00.599Z,26.37
2019-01-11T21:03:29.493Z,26.00
2019-01-11T21:05:58.437Z,26.10
2019-01-11T21:08:27.293Z,25.50
2019-01-11T21:13:44.176Z,29.20
2019-01-11T21:16:13.049Z,27.30
2019-01-11T21:18:44.407Z,27.20
2019-01-11T21:24:06.801Z,26.10
2019-01-11T21:26:35.813Z,26.10
2019-01-11T21:29:04.938Z,25.65
2019-01-11T21:31:33.696Z,25.62
2019-01-11T21:34:02.763Z,25.50
2019-01-11T21:36:31.541Z,27.37
2019-01-11T21:41:59.527Z,25.12
2019-01-11T21:44:28.363Z,25.77
2019-01-11T21:46:57.149Z,26.40
2019-01-11T21:49:28.142Z,26.27
2019-01-11T21:51:56.919Z,26.23
2019-01-11T21:54:25.730Z,25.65
2019-01-11T21:56:54.525Z,26.33
2019-01-11T21:59:23.699Z,28.67
2019-01-11T22:01:52.559Z,27.15
2019-01-11T22:04:21.405Z,26.45
2019-01-11T22:06:50.136Z,25.57
2019-01-11T22:09:18.886Z,27.42
2019-01-11T22:11:47.692Z,27.77
2019-01-11T22:14:16.636Z,26.48
2019-01-11T22:17:04.530Z,29.02
2019-01-11T22:22:34.911Z,28.05
2019-01-11T22:28:17.966Z,27.45
2019-01-11T22:30:49.829Z,29.70
2019-01-11T22:33:18.658Z,27.62
2019-01-11T22:38:27.865Z,27.93
2019-01-11T22:40:56.745Z,28.70
2019-01-11T22:46:21.147Z,27.50
2019-01-11T22:49:12.000Z,26.60
2019-01-11T22:51:41.378Z,28.38
2019-01-11T22:54:10.645Z,28.38
2019-01-11T22:56:46.230Z,26.68
2019-01-11T22:59:15.088Z,26.15
2019-01-11T23:02:03.005Z,27.82
2019-01-11T23:04:31.864Z,26.82
2019-01-11T23:07:19.813Z,25.07
2019-01-11T23:10:07.614Z,26.07
2019-01-11T23:15:40.387Z,27.10
2019-01-11T23:18:28.121Z,25.47
2019-01-11T23:20:58.653Z,25.32
2019-01-11T23:23:27.362Z,26.55
2019-01-11T23:25:56.138Z,25.82
2019-01-11T23:28:24.881Z,26.05
2019-01-11T23:30:53.872Z,26.00
2019-01-11T23:33:22.561Z,26.37
2019-01-11T23:35:52.983Z,27.22
2019-01-11T23:38:21.616Z,27.02
2019-01-11T23:40:50.373Z,27.30
2019-01-11T23:43:19.057Z,27.65
2019-01-11T23:45:47.846Z,26.65
2019-01-11T23:48:16.752Z,27.42
2019-01-11T23:50:45.509Z,26.75
2019-01-11T23:53:14.549Z,26.23
2019-01-11T23:58:25.829Z,26.17
